createdAt,value
2022-08-30T00:01:13.626Z,22.67
2022-08-30T00:03:43.121Z,22.70
2022-08-30T00:06:10.448Z,22.64
2022-08-30T00:08:37.629Z,22.65
2022-08-30T00:11:13.729Z,22.67
2022-08-30T00:13:42.054Z,22.65
2022-08-30T00:16:09.557Z,22.66
2022-08-30T00:18:36.739Z,22.66
2022-08-30T00:21:12.723Z,22.65
2022-08-30T00:23:40.077Z,22.64
2022-08-30T00:26:07.547Z,22.65
2022-08-30T00:28:34.907Z,22.63
2022-08-30T00:31:15.988Z,22.61
2022-08-30T00:33:43.046Z,22.62
2022-08-30T00:36:12.145Z,22.58
2022-08-30T00:38:39.125Z,22.54
2022-08-30T00:41:12.824Z,22.57
2022-08-30T00:43:39.716Z,22.57
2022-08-30T00:46:08.765Z,22.58
2022-08-30T00:48:37.868Z,22.59
2022-08-30T00:51:13.586Z,22.62
2022-08-30T00:53:42.450Z,22.60
2022-08-30T00:56:10.401Z,22.59
2022-08-30T00:58:40.343Z,22.59
2022-08-30T01:01:11.860Z,22.54
2022-08-30T01:03:39.849Z,22.52
2022-08-30T01:06:07.768Z,22.51
2022-08-30T01:08:35.484Z,22.54
2022-08-30T01:11:08.899Z,22.54
2022-08-30T01:13:36.141Z,22.56
2022-08-30T01:16:03.239Z,22.53
2022-08-30T01:18:31.697Z,22.51
2022-08-30T01:21:10.626Z,22.52
2022-08-30T01:23:40.091Z,22.51
2022-08-30T01:26:07.491Z,22.50
2022-08-30T01:28:35.057Z,22.49
2022-08-30T01:31:07.841Z,22.46
2022-08-30T01:33:37.700Z,22.46
2022-08-30T01:36:06.852Z,22.47
2022-08-30T01:38:35.973Z,22.48
2022-08-30T01:41:15.651Z,22.38
2022-08-30T01:43:42.750Z,22.49
2022-08-30T01:46:11.346Z,22.44
2022-08-30T01:48:39.196Z,22.45
2022-08-30T01:51:10.682Z,22.42
2022-08-30T01:53:38.073Z,22.40
2022-08-30T01:56:05.892Z,22.38
2022-08-30T01:58:32.769Z,22.40
2022-08-30T02:01:09.006Z,22.39
2022-08-30T02:03:36.804Z,22.39
2022-08-30T02:06:04.679Z,22.42
2022-08-30T02:08:31.923Z,22.40
2022-08-30T02:11:09.591Z,22.39
2022-08-30T02:13:40.303Z,22.40
2022-08-30T02:16:11.630Z,22.41
2022-08-30T02:18:39.578Z,22.40
2022-08-30T02:21:12.796Z,22.42
2022-08-30T02:23:39.731Z,22.42
2022-08-30T02:26:06.698Z,22.43
2022-08-30T02:28:33.578Z,22.38
2022-08-30T02:31:12.235Z,22.36
2022-08-30T02:33:40.473Z,22.35
2022-08-30T02:36:08.081Z,22.35
2022-08-30T02:38:34.935Z,22.36
2022-08-30T02:41:11.533Z,22.34
2022-08-30T02:43:38.343Z,22.34
2022-08-30T02:46:08.121Z,22.35
2022-08-30T02:48:35.026Z,22.32
2022-08-30T02:51:11.810Z,22.30
2022-08-30T02:53:39.695Z,22.30
2022-08-30T02:56:06.932Z,22.33
2022-08-30T02:58:33.867Z,22.31
2022-08-30T03:01:10.355Z,22.30
2022-08-30T03:03:37.525Z,22.34
2022-08-30T03:06:04.414Z,22.31
2022-08-30T03:08:31.923Z,22.30
2022-08-30T03:11:09.733Z,22.27
2022-08-30T03:13:36.681Z,22.25
2022-08-30T03:16:03.707Z,22.26
2022-08-30T03:18:30.542Z,22.25
2022-08-30T03:21:06.363Z,22.29
2022-08-30T03:23:33.334Z,22.26
2022-08-30T03:26:00.194Z,22.25
2022-08-30T03:28:26.939Z,22.21
2022-08-30T03:30:54.897Z,22.23
2022-08-30T03:33:21.975Z,22.21
2022-08-30T03:35:49.886Z,22.24
2022-08-30T03:38:16.783Z,22.21
2022-08-30T03:40:43.598Z,22.24
2022-08-30T03:43:10.585Z,22.24
2022-08-30T03:45:37.445Z,22.23
2022-08-30T03:48:04.434Z,22.24
2022-08-30T03:50:31.228Z,22.24
2022-08-30T03:52:58.764Z,22.27
2022-08-30T03:55:25.554Z,22.21
2022-08-30T03:57:52.301Z,22.22
2022-08-30T04:00:20.137Z,22.17
2022-08-30T04:02:46.887Z,22.17
2022-08-30T04:05:13.983Z,22.23
2022-08-30T04:07:42.413Z,22.14
2022-08-30T04:10:09.716Z,22.19
2022-08-30T04:12:38.599Z,22.17
2022-08-30T04:15:06.446Z,22.15
2022-08-30T04:17:33.188Z,22.17
2022-08-30T04:19:59.905Z,22.11
2022-08-30T04:22:26.813Z,22.12
2022-08-30T04:24:53.656Z,22.14
2022-08-30T04:27:20.725Z,22.15
2022-08-30T04:29:48.037Z,22.15
2022-08-30T04:32:14.941Z,22.13
2022-08-30T04:34:41.718Z,22.11
2022-08-30T04:37:10.055Z,22.11
2022-08-30T04:39:37.601Z,22.13
2022-08-30T04:42:04.586Z,22.13
2022-08-30T04:44:31.897Z,22.13
2022-08-30T04:46:59.350Z,22.10
2022-08-30T04:49:26.263Z,22.09
2022-08-30T04:51:53.014Z,22.08
2022-08-30T04:54:19.833Z,22.08
2022-08-30T04:56:47.732Z,22.11
2022-08-30T04:59:14.437Z,22.10
2022-08-30T05:01:45.435Z,22.07
2022-08-30T05:04:13.171Z,22.06
2022-08-30T05:06:42.168Z,22.07
2022-08-30T05:09:08.961Z,22.05
2022-08-30T05:11:35.708Z,22.05
2022-08-30T05:14:02.462Z,22.06
2022-08-30T05:16:29.231Z,22.06
2022-08-30T05:18:56.021Z,22.03
2022-08-30T05:21:25.729Z,22.02
2022-08-30T05:23:56.386Z,22.03
2022-08-30T05:26:25.054Z,22.06
2022-08-30T05:28:52.420Z,22.03
2022-08-30T05:31:20.714Z,22.00
2022-08-30T05:33:48.014Z,22.04
2022-08-30T05:36:15.960Z,22.01
2022-08-30T05:38:43.290Z,22.02
2022-08-30T05:41:11.500Z,22.00
2022-08-30T05:43:38.879Z,22.02
2022-08-30T05:46:12.815Z,22.02
2022-08-30T05:48:40.174Z,22.05
2022-08-30T05:51:14.434Z,22.03
2022-08-30T05:53:41.466Z,22.06
2022-08-30T05:56:09.815Z,22.01
2022-08-30T05:58:36.561Z,22.02
2022-08-30T06:01:03.939Z,22.01
2022-08-30T06:03:32.997Z,22.02
2022-08-30T06:06:00.203Z,22.03
2022-08-30T06:08:26.889Z,22.02
2022-08-30T06:10:53.553Z,22.00
2022-08-30T06:13:20.370Z,21.94
2022-08-30T06:15:47.537Z,21.99
2022-08-30T06:18:14.525Z,21.99
2022-08-30T06:20:42.409Z,21.96
2022-08-30T06:23:09.860Z,22.00
2022-08-30T06:25:41.310Z,22.00
2022-08-30T06:28:09.109Z,22.03
2022-08-30T06:30:36.090Z,22.05
2022-08-30T06:33:02.818Z,22.03
2022-08-30T06:35:32.638Z,21.99
2022-08-30T06:38:02.241Z,21.99
2022-08-30T06:40:28.953Z,22.03
2022-08-30T06:42:58.316Z,22.03
2022-08-30T06:45:28.366Z,22.01
2022-08-30T06:50:26.458Z,22.04
2022-08-30T06:52:53.495Z,22.06
2022-08-30T06:55:24.723Z,22.07
2022-08-30T06:57:51.614Z,22.07
2022-08-30T07:00:20.268Z,22.07
2022-08-30T07:02:47.376Z,22.07
2022-08-30T07:05:18.658Z,22.09
2022-08-30T07:07:46.058Z,22.15
2022-08-30T07:10:14.743Z,22.14
2022-08-30T07:12:43.065Z,22.14
2022-08-30T07:15:10.868Z,22.13
2022-08-30T07:17:56.417Z,22.16
2022-08-30T07:20:23.303Z,22.11
2022-08-30T07:22:52.161Z,22.15
2022-08-30T07:25:19.988Z,22.13
2022-08-30T07:27:56.893Z,22.11
2022-08-30T07:30:23.951Z,22.11
2022-08-30T07:32:50.712Z,22.10
2022-08-30T07:35:19.070Z,22.10
2022-08-30T07:37:48.346Z,22.14
2022-08-30T07:40:18.094Z,22.15
2022-08-30T07:42:44.790Z,22.13
2022-08-30T07:45:12.209Z,22.11
2022-08-30T07:47:41.461Z,22.13
2022-08-30T07:50:09.880Z,22.17
2022-08-30T07:52:42.821Z,22.13
2022-08-30T07:55:10.249Z,22.13
2022-08-30T07:57:37.027Z,22.12
2022-08-30T08:00:05.259Z,22.11
2022-08-30T08:02:34.810Z,22.17
2022-08-30T08:05:07.724Z,22.15
2022-08-30T08:07:35.274Z,22.15
2022-08-30T08:10:02.494Z,22.14
2022-08-30T08:12:33.651Z,22.14
2022-08-30T08:15:06.757Z,22.16
2022-08-30T08:17:39.607Z,22.20
2022-08-30T08:20:06.514Z,22.18
2022-08-30T08:22:35.798Z,22.17
2022-08-30T08:25:08.078Z,22.13
2022-08-30T08:27:37.678Z,22.18
2022-08-30T08:30:06.279Z,22.17
2022-08-30T08:32:34.175Z,22.21
2022-08-30T08:35:00.907Z,22.24
2022-08-30T08:37:28.591Z,22.18
2022-08-30T08:39:56.854Z,22.24
2022-08-30T08:42:29.725Z,22.22
2022-08-30T08:45:15.231Z,22.25
2022-08-30T08:47:50.656Z,22.27
2022-08-30T08:50:21.557Z,22.24
2022-08-30T08:53:20.495Z,22.25
2022-08-30T08:55:54.772Z,22.27
2022-08-30T08:58:28.057Z,22.24
2022-08-30T09:00:56.956Z,22.24
2022-08-30T09:03:26.527Z,22.26
2022-08-30T09:05:56.387Z,22.25
2022-08-30T09:08:30.477Z,22.26
2022-08-30T09:11:02.204Z,22.28
2022-08-30T09:13:28.954Z,22.29
2022-08-30T09:15:57.862Z,22.32
2022-08-30T09:18:54.463Z,22.31
2022-08-30T09:21:24.880Z,22.30
2022-08-30T09:23:57.312Z,22.34
2022-08-30T09:26:32.175Z,22.36
2022-08-30T09:29:05.947Z,22.36
2022-08-30T09:31:34.376Z,22.37
2022-08-30T09:34:09.730Z,22.38
2022-08-30T09:36:55.922Z,22.40
2022-08-30T09:39:38.931Z,22.37
2022-08-30T09:42:20.699Z,22.43
2022-08-30T09:44:47.454Z,22.43
2022-08-30T09:47:28.490Z,22.46
2022-08-30T09:50:07.844Z,22.43
2022-08-30T09:52:54.624Z,22.46
2022-08-30T09:55:41.460Z,22.48
2022-08-30T09:58:18.323Z,22.45
2022-08-30T10:01:03.395Z,22.50
2022-08-30T10:03:40.287Z,22.57
2022-08-30T10:06:18.260Z,22.57
2022-08-30T10:08:51.462Z,22.50
2022-08-30T10:11:18.824Z,22.48
2022-08-30T10:14:06.108Z,22.50
2022-08-30T10:17:12.454Z,22.49
2022-08-30T10:19:49.426Z,22.51
2022-08-30T10:22:16.088Z,22.50
2022-08-30T10:24:48.313Z,22.52
2022-08-30T10:27:18.651Z,22.51
2022-08-30T10:29:51.907Z,22.51
2022-08-30T10:32:24.031Z,22.56
2022-08-30T10:35:02.222Z,22.57
2022-08-30T10:37:31.400Z,22.59
2022-08-30T10:40:23.110Z,22.62
2022-08-30T10:42:54.126Z,22.64
2022-08-30T10:45:31.730Z,22.64
2022-08-30T10:48:10.835Z,22.65
2022-08-30T10:50:42.273Z,22.66
2022-08-30T10:53:17.088Z,22.65
2022-08-30T10:55:54.375Z,22.66
2022-08-30T10:58:24.592Z,22.66
2022-08-30T11:01:12.576Z,22.71
2022-08-30T11:03:56.886Z,22.74
2022-08-30T11:09:45.349Z,22.79
2022-08-30T11:12:33.276Z,22.82
2022-08-30T11:15:01.516Z,22.84
2022-08-30T11:20:00.525Z,22.88
2022-08-30T11:25:40.512Z,22.92
2022-08-30T11:28:09.200Z,22.95
2022-08-30T11:30:39.028Z,22.97
2022-08-30T11:33:25.691Z,22.96
2022-08-30T11:35:54.684Z,22.94
2022-08-30T11:38:27.879Z,22.94
2022-08-30T11:40:55.891Z,22.94
2022-08-30T11:43:41.003Z,22.94
2022-08-30T11:46:19.450Z,22.94
2022-08-30T11:48:56.284Z,22.96
2022-08-30T11:51:58.243Z,22.95
2022-08-30T11:54:40.597Z,22.96
2022-08-30T11:57:18.481Z,22.97
2022-08-30T11:59:50.282Z,22.96
2022-08-30T12:02:35.910Z,22.98
2022-08-30T12:05:02.671Z,22.98
2022-08-30T12:07:53.574Z,22.97
2022-08-30T12:10:28.194Z,23.00
2022-08-30T12:12:56.875Z,22.98
2022-08-30T12:15:43.739Z,23.00
2022-08-30T12:18:29.766Z,22.99
2022-08-30T12:20:59.224Z,23.01
2022-08-30T12:23:29.528Z,23.02
2022-08-30T12:26:30.504Z,23.02
2022-08-30T12:29:12.747Z,23.04
2022-08-30T12:32:03.445Z,23.02
2022-08-30T12:34:34.539Z,23.02
2022-08-30T12:37:10.789Z,23.01
2022-08-30T12:39:42.516Z,23.04
2022-08-30T12:42:17.571Z,23.05
2022-08-30T12:44:50.108Z,23.08
2022-08-30T12:47:25.088Z,23.08
2022-08-30T12:49:55.640Z,23.11
2022-08-30T12:52:23.501Z,23.14
2022-08-30T12:54:51.231Z,23.17
2022-08-30T12:57:36.565Z,23.23
2022-08-30T13:00:06.642Z,23.25
2022-08-30T13:02:49.072Z,23.26
2022-08-30T13:05:45.541Z,23.27
2022-08-30T13:08:22.369Z,23.30
2022-08-30T13:10:52.297Z,23.35
2022-08-30T13:13:31.965Z,23.42
2022-08-30T13:16:07.333Z,23.42
2022-08-30T13:18:39.614Z,23.48
2022-08-30T13:21:25.457Z,23.49
2022-08-30T13:23:56.172Z,23.56
2022-08-30T13:26:23.362Z,23.55
2022-08-30T13:28:55.435Z,23.49
2022-08-30T13:31:22.813Z,23.45
2022-08-30T13:33:57.408Z,23.42
2022-08-30T13:36:33.994Z,23.41
2022-08-30T13:39:01.611Z,23.40
2022-08-30T13:41:30.171Z,23.44
2022-08-30T13:44:11.741Z,23.45
2022-08-30T13:46:53.412Z,23.41
2022-08-30T13:49:47.103Z,23.42
2022-08-30T13:52:21.294Z,23.39
2022-08-30T13:54:52.564Z,23.37
2022-08-30T14:00:12.266Z,23.37
2022-08-30T14:02:45.484Z,23.39
2022-08-30T14:05:47.193Z,23.43
2022-08-30T14:08:04.070Z,23.42
2022-08-30T14:10:32.191Z,23.44
2022-08-30T14:13:07.857Z,23.42
2022-08-30T14:15:41.927Z,23.39
2022-08-30T14:18:09.710Z,23.39
2022-08-30T14:20:38.811Z,23.37
2022-08-30T14:23:07.661Z,23.36
2022-08-30T14:25:37.112Z,23.36
2022-08-30T14:28:06.426Z,23.36
2022-08-30T14:30:33.487Z,23.35
2022-08-30T14:33:04.234Z,23.34
2022-08-30T14:35:31.222Z,23.34
2022-08-30T14:37:58.984Z,23.34
2022-08-30T14:40:26.995Z,23.34
2022-08-30T14:42:56.402Z,23.34
2022-08-30T14:45:26.811Z,23.33
2022-08-30T14:47:53.589Z,23.32
2022-08-30T14:50:21.068Z,23.32
2022-08-30T14:52:50.522Z,23.32
2022-08-30T14:55:18.587Z,23.32
2022-08-30T14:57:47.681Z,23.32
2022-08-30T15:00:16.235Z,23.32
2022-08-30T15:02:44.091Z,23.33
2022-08-30T15:05:12.641Z,23.33
2022-08-30T15:07:41.613Z,23.31
2022-08-30T15:10:10.086Z,23.32
2022-08-30T15:12:43.258Z,23.32
2022-08-30T15:15:11.735Z,23.31
2022-08-30T15:17:44.161Z,23.31
2022-08-30T15:20:19.150Z,23.33
2022-08-30T15:22:46.135Z,23.33
2022-08-30T15:25:13.331Z,23.32
2022-08-30T15:27:40.472Z,23.32
2022-08-30T15:30:11.096Z,23.33
2022-08-30T15:32:38.200Z,23.32
2022-08-30T15:35:05.571Z,23.34
2022-08-30T15:37:34.550Z,23.35
2022-08-30T15:40:07.125Z,23.33
2022-08-30T15:42:37.045Z,23.35
2022-08-30T15:45:04.434Z,23.36
2022-08-30T15:47:33.300Z,23.36
2022-08-30T15:50:02.226Z,23.36
2022-08-30T15:52:30.556Z,23.36
2022-08-30T15:54:57.676Z,23.37
2022-08-30T15:57:29.764Z,23.38
2022-08-30T15:59:56.536Z,23.38
2022-08-30T16:02:27.717Z,23.42
2022-08-30T16:04:55.545Z,23.44
2022-08-30T16:07:23.698Z,23.43
2022-08-30T16:09:52.977Z,23.42
2022-08-30T16:12:23.840Z,23.42
2022-08-30T16:14:50.921Z,23.42
2022-08-30T16:17:21.623Z,23.42
2022-08-30T16:19:58.600Z,23.44
2022-08-30T16:22:28.060Z,23.49
2022-08-30T16:24:54.685Z,23.55
2022-08-30T16:27:22.293Z,23.53
2022-08-30T16:29:50.043Z,23.49
2022-08-30T16:32:17.735Z,23.50
2022-08-30T16:34:46.244Z,23.48
2022-08-30T16:37:12.987Z,23.46
2022-08-30T16:39:41.232Z,23.46
2022-08-30T16:42:14.912Z,23.46
2022-08-30T16:44:48.325Z,23.45
2022-08-30T16:47:16.889Z,23.45
2022-08-30T16:49:44.167Z,23.44
2022-08-30T16:52:11.651Z,23.44
2022-08-30T16:54:39.304Z,23.44
2022-08-30T16:57:06.654Z,23.43
2022-08-30T16:59:33.530Z,23.44
2022-08-30T17:02:01.009Z,23.43
2022-08-30T17:04:28.844Z,23.42
2022-08-30T17:06:56.084Z,23.42
2022-08-30T17:09:25.941Z,23.43
2022-08-30T17:11:53.195Z,23.55
2022-08-30T17:14:29.063Z,23.57
2022-08-30T17:17:00.483Z,23.57
2022-08-30T17:19:30.491Z,23.51
2022-08-30T17:21:59.217Z,23.48
2022-08-30T17:24:26.275Z,23.48
2022-08-30T17:26:54.612Z,23.46
2022-08-30T17:29:22.359Z,23.43
2022-08-30T17:31:51.258Z,23.43
2022-08-30T17:34:24.866Z,23.42
2022-08-30T17:36:55.077Z,23.40
2022-08-30T17:39:23.697Z,23.39
2022-08-30T17:41:51.628Z,23.38
2022-08-30T17:44:25.813Z,23.37
2022-08-30T17:46:56.537Z,23.38
2022-08-30T17:49:23.766Z,23.36
2022-08-30T17:51:56.355Z,23.36
2022-08-30T17:54:28.973Z,23.35
2022-08-30T17:57:01.161Z,23.35
2022-08-30T17:59:31.574Z,23.35
2022-08-30T18:02:00.012Z,23.35
2022-08-30T18:04:26.935Z,23.35
2022-08-30T18:06:54.771Z,23.34
2022-08-30T18:09:31.862Z,23.34
2022-08-30T18:12:02.141Z,23.32
2022-08-30T18:14:28.937Z,23.33
2022-08-30T18:16:55.638Z,23.33
2022-08-30T18:19:30.126Z,23.33
2022-08-30T18:21:59.231Z,23.33
2022-08-30T18:24:37.779Z,23.34
2022-08-30T18:27:05.108Z,23.32
2022-08-30T18:29:32.045Z,23.33
2022-08-30T18:32:12.140Z,23.32
2022-08-30T18:34:43.148Z,23.33
2022-08-30T18:37:13.277Z,23.32
2022-08-30T18:39:41.194Z,23.31
2022-08-30T18:42:08.128Z,23.32
2022-08-30T18:44:40.220Z,23.31
2022-08-30T18:47:11.187Z,23.32
2022-08-30T18:49:38.954Z,23.31
2022-08-30T18:52:07.495Z,23.32
2022-08-30T18:54:37.933Z,23.31
2022-08-30T18:57:14.443Z,23.30
2022-08-30T18:59:42.140Z,23.30
2022-08-30T19:02:18.202Z,23.31
2022-08-30T19:07:37.519Z,23.29
2022-08-30T19:10:11.229Z,23.29
2022-08-30T19:12:43.187Z,23.29
2022-08-30T19:15:20.053Z,23.29
2022-08-30T19:17:53.732Z,23.27
2022-08-30T19:20:21.673Z,23.27
2022-08-30T19:23:19.616Z,23.27
2022-08-30T19:25:53.414Z,23.27
2022-08-30T19:28:24.363Z,23.27
2022-08-30T19:31:01.848Z,23.26
2022-08-30T19:33:31.095Z,23.27
2022-08-30T19:35:58.912Z,23.24
2022-08-30T19:38:28.506Z,23.25
2022-08-30T19:41:02.957Z,23.24
2022-08-30T19:43:35.771Z,23.24
2022-08-30T19:46:05.324Z,23.24
2022-08-30T19:48:33.234Z,23.24
2022-08-30T19:51:06.914Z,23.24
2022-08-30T19:53:42.399Z,23.29
2022-08-30T19:56:09.722Z,23.29
2022-08-30T19:58:39.115Z,23.25
2022-08-30T20:01:10.651Z,23.23
2022-08-30T20:03:44.667Z,23.23
2022-08-30T20:06:15.997Z,23.23
2022-08-30T20:08:50.710Z,23.20
2022-08-30T20:11:24.170Z,23.20
2022-08-30T20:13:50.989Z,23.20
2022-08-30T20:16:17.823Z,23.20
2022-08-30T20:18:53.614Z,23.22
2022-08-30T20:21:23.202Z,23.19
2022-08-30T20:23:55.521Z,23.19
2022-08-30T20:24:31.778Z,23.30
2022-08-30T20:26:22.629Z,23.22
2022-08-30T20:29:01.004Z,23.22
2022-08-30T20:31:29.341Z,23.20
2022-08-30T20:33:56.614Z,23.24
2022-08-30T20:36:26.482Z,23.21
2022-08-30T20:38:53.358Z,23.20
2022-08-30T20:41:25.335Z,23.20
2022-08-30T20:43:58.466Z,23.21
2022-08-30T20:46:34.465Z,23.17
2022-08-30T20:49:05.103Z,23.15
2022-08-30T20:51:31.780Z,23.19
2022-08-30T20:54:01.809Z,23.16
2022-08-30T20:56:39.179Z,23.14
2022-08-30T20:59:08.210Z,23.14
2022-08-30T21:01:36.449Z,23.14
2022-08-30T21:04:05.893Z,23.13
2022-08-30T21:06:38.675Z,23.13
2022-08-30T21:09:21.604Z,23.12
2022-08-30T21:12:01.266Z,23.16
2022-08-30T21:14:36.810Z,23.12
2022-08-30T21:17:04.112Z,23.11
2022-08-30T21:19:30.768Z,23.16
2022-08-30T21:22:10.109Z,23.14
2022-08-30T21:24:50.829Z,23.16
2022-08-30T21:27:19.378Z,23.15
2022-08-30T21:29:48.625Z,23.12
2022-08-30T21:32:15.475Z,23.13
2022-08-30T21:35:01.517Z,23.11
2022-08-30T21:37:40.323Z,23.08
2022-08-30T21:40:08.345Z,23.08
2022-08-30T21:42:40.286Z,23.09
2022-08-30T21:45:07.835Z,23.14
2022-08-30T21:47:38.320Z,23.13
2022-08-30T21:50:21.480Z,23.08
2022-08-30T21:52:55.071Z,23.07
2022-08-30T21:55:24.050Z,23.08
2022-08-30T21:57:50.950Z,23.05
2022-08-30T22:00:21.019Z,23.04
2022-08-30T22:02:54.022Z,23.02
2022-08-30T22:05:25.025Z,23.04
2022-08-30T22:07:54.713Z,23.03
2022-08-30T22:10:31.134Z,23.08
2022-08-30T22:12:59.174Z,23.07
2022-08-30T22:15:27.116Z,23.06
2022-08-30T22:17:55.498Z,23.09
2022-08-30T22:20:24.449Z,23.07
2022-08-30T22:22:55.254Z,23.07
2022-08-30T22:25:22.750Z,23.04
2022-08-30T22:27:53.271Z,23.05
2022-08-30T22:30:23.170Z,23.03
2022-08-30T22:32:50.465Z,23.00
2022-08-30T22:35:19.831Z,23.02
2022-08-30T22:37:53.342Z,23.02
2022-08-30T22:40:21.210Z,23.03
2022-08-30T22:42:51.857Z,23.02
2022-08-30T22:45:19.170Z,23.02
2022-08-30T22:47:46.142Z,23.00
2022-08-30T22:50:18.335Z,23.00
2022-08-30T22:52:53.921Z,22.98
2022-08-30T22:55:20.879Z,22.96
2022-08-30T22:57:47.828Z,22.98
2022-08-30T23:00:16.033Z,23.01
2022-08-30T23:02:45.298Z,22.98
2022-08-30T23:05:13.521Z,23.01
2022-08-30T23:07:42.274Z,23.01
2022-08-30T23:10:09.471Z,23.00
2022-08-30T23:12:39.247Z,22.98
2022-08-30T23:15:13.171Z,23.00
2022-08-30T23:17:52.159Z,22.98
2022-08-30T23:20:21.990Z,22.97
2022-08-30T23:22:58.191Z,22.94
2022-08-30T23:25:58.002Z,22.94
2022-08-30T23:28:43.057Z,22.96
2022-08-30T23:31:30.711Z,22.94
2022-08-30T23:34:23.599Z,22.96
2022-08-30T23:37:09.819Z,22.94
2022-08-30T23:39:56.970Z,22.95
2022-08-30T23:42:50.032Z,22.99
2022-08-30T23:45:36.657Z,22.98
2022-08-30T23:48:23.561Z,23.00
2022-08-30T23:51:09.013Z,22.98
2022-08-30T23:53:54.072Z,22.94
2022-08-30T23:56:48.900Z,22.91
2022-08-30T23:59:37.527Z,22.94
